Time;durP1;ratioP1;P1;durP2;ratioP2;P2;SDS_P1;SDS_P2;PMS_P1;PMS_P2;Temp;Humidity;BMP_temperature;BMP_pressure;BME280_temperature;BME280_humidity;BME280_pressure;Samples;Min_cycle;Max_cycle;Signal;HPM_P1;HPM_P2
2022/01/07 00:00:13;;;;;;;;;;;3.60;99.90;;;;;;5146069;27;20452;-57
2022/01/07 00:02:39;;;;;;;;;;;3.20;99.90;;;;;;5135750;27;19927;-59
2022/01/07 00:05:05;;;;;;;;;;;3.30;99.90;;;;;;5141927;27;19927;-59
2022/01/07 00:07:31;;;;;;;;;;;3.20;99.90;;;;;;5138466;27;19923;-66
2022/01/07 00:09:56;;;;;;;;;;;3.20;99.90;;;;;;5132153;27;20010;-57
2022/01/07 00:12:22;;;;;;;;;;;3.20;99.90;;;;;;5135326;27;20407;-56
2022/01/07 00:14:48;;;;;;;;;;;3.30;99.90;;;;;;5145141;27;19927;-56
2022/01/07 00:17:14;;;;;;;;;;;3.30;99.90;;;;;;5142360;27;20300;-59
2022/01/07 00:19:40;;;;;;;;;;;3.20;99.90;;;;;;5137351;27;19928;-56
2022/01/07 00:22:05;;;;;;;;;;;3.30;99.90;;;;;;5148700;27;19974;-57
2022/01/07 00:24:31;;;;;;;;;;;3.20;99.90;;;;;;5136193;27;19927;-58
2022/01/07 00:26:56;;;;;;;;;;;3.30;99.90;;;;;;5143685;27;19966;-57
2022/01/07 00:29:22;;;;;;;;;;;3.20;99.90;;;;;;5143170;27;19938;-56
2022/01/07 00:31:47;;;;;;;;;;;3.50;99.90;;;;;;5136234;27;19931;-58
2022/01/07 00:34:13;;;;;;;;;;;3.20;99.90;;;;;;5148339;27;20406;-59
2022/01/07 00:36:38;;;;;;;;;;;3.20;99.90;;;;;;5136647;27;19927;-59
2022/01/07 00:39:04;;;;;;;;;;;3.20;99.90;;;;;;5141886;27;19927;-59
2022/01/07 00:41:30;;;;;;;;;;;3.20;99.90;;;;;;5134475;27;20384;-59
2022/01/07 00:43:56;;;;;;;;;;;3.50;99.90;;;;;;5134841;27;20340;-58
2022/01/07 00:46:21;;;;;;;;;;;3.20;99.90;;;;;;5134394;27;19926;-59
2022/01/07 00:48:47;;;;;;;;;;;3.20;99.90;;;;;;5142358;27;20296;-59
2022/01/07 00:51:13;;;;;;;;;;;3.20;99.90;;;;;;5140015;27;19942;-59
2022/01/07 00:53:41;;;;;;;;;;;3.20;99.90;;;;;;5137310;27;19928;-58
2022/01/07 00:56:07;;;;;;;;;;;3.20;99.90;;;;;;5147437;27;20377;-56
2022/01/07 00:58:32;;;;;;;;;;;3.20;99.90;;;;;;5135233;27;19931;-56
2022/01/07 01:00:58;;;;;;;;;;;3.10;99.90;;;;;;5142380;27;19927;-56
2022/01/07 01:03:23;;;;;;;;;;;3.10;99.90;;;;;;5134017;27;19971;-56
2022/01/07 01:05:49;;;;;;;;;;;3.10;99.90;;;;;;5146666;27;20326;-59
2022/01/07 01:08:15;;;;;;;;;;;3.00;99.90;;;;;;5131778;27;19927;-56
2022/01/07 01:10:40;;;;;;;;;;;3.00;99.90;;;;;;5130433;27;19930;-58
2022/01/07 01:13:06;;;;;;;;;;;3.00;99.90;;;;;;5139867;27;19970;-59
2022/01/07 01:15:32;;;;;;;;;;;3.00;99.90;;;;;;5137433;27;20094;-56
2022/01/07 01:17:58;;;;;;;;;;;2.90;99.90;;;;;;5147262;27;20337;-56
2022/01/07 01:20:24;;;;;;;;;;;2.90;99.90;;;;;;5134059;27;20397;-56
2022/01/07 01:22:50;;;;;;;;;;;2.90;99.90;;;;;;5143418;27;19982;-56
2022/01/07 01:25:15;;;;;;;;;;;2.80;99.90;;;;;;5141462;27;19931;-59
2022/01/07 01:27:42;;;;;;;;;;;2.80;99.90;;;;;;5134147;27;20006;-57
2022/01/07 01:30:09;;;;;;;;;;;2.80;99.90;;;;;;5145544;27;19927;-56
2022/01/07 01:32:35;;;;;;;;;;;2.80;99.90;;;;;;5135475;27;19927;-56
2022/01/07 01:35:01;;;;;;;;;;;2.80;99.90;;;;;;5141873;27;19928;-55
2022/01/07 01:37:26;;;;;;;;;;;3.50;99.90;;;;;;5142194;27;20272;-58
2022/01/07 01:39:52;;;;;;;;;;;2.70;99.90;;;;;;5136806;27;20414;-56
2022/01/07 01:42:17;;;;;;;;;;;2.70;99.90;;;;;;5130037;27;19927;-56
2022/01/07 01:44:43;;;;;;;;;;;2.70;99.90;;;;;;5136799;27;19927;-56
2022/01/07 01:47:09;;;;;;;;;;;2.70;99.90;;;;;;5138498;27;20373;-56
2022/01/07 01:49:34;;;;;;;;;;;2.70;99.90;;;;;;5143448;27;20006;-56
2022/01/07 01:52:00;;;;;;;;;;;2.70;99.90;;;;;;5131539;27;20014;-57
2022/01/07 01:54:26;;;;;;;;;;;2.70;99.90;;;;;;5146496;27;19981;-56
2022/01/07 01:56:52;;;;;;;;;;;2.60;99.90;;;;;;5136283;27;19978;-56
2022/01/07 01:59:25;;;;;;;;;;;3.60;99.90;;;;;;5141402;27;20411;-56
2022/01/07 02:01:51;;;;;;;;;;;2.60;99.90;;;;;;5133768;27;20010;-57
2022/01/07 02:04:16;;;;;;;;;;;2.60;99.90;;;;;;5135725;27;20390;-56
2022/01/07 02:06:42;;;;;;;;;;;3.30;99.90;;;;;;5143649;27;19931;-56
2022/01/07 02:09:07;;;;;;;;;;;2.50;99.90;;;;;;5127562;27;20599;-56
2022/01/07 02:11:34;;;;;;;;;;;2.50;99.90;;;;;;5143051;27;19927;-56
2022/01/07 02:14:00;;;;;;;;;;;2.50;99.90;;;;;;5133005;27;19934;-55
2022/01/07 02:16:26;;;;;;;;;;;2.50;99.90;;;;;;5145847;27;19923;-56
2022/01/07 02:18:51;;;;;;;;;;;2.50;99.90;;;;;;5136450;27;20818;-55
2022/01/07 02:21:17;;;;;;;;;;;2.50;99.90;;;;;;5137741;27;20014;-59
2022/01/07 02:23:42;;;;;;;;;;;2.50;99.90;;;;;;5143935;27;19976;-56
2022/01/07 02:26:08;;;;;;;;;;;2.50;99.90;;;;;;5144914;27;19927;-56
2022/01/07 02:28:34;;;;;;;;;;;2.40;99.90;;;;;;5132240;27;19931;-55
2022/01/07 02:31:00;;;;;;;;;;;2.40;99.90;;;;;;5141216;27;19991;-56
2022/01/07 02:33:25;;;;;;;;;;;2.40;99.90;;;;;;5141551;27;19974;-56
2022/01/07 02:35:51;;;;;;;;;;;2.30;99.90;;;;;;5132048;27;19938;-56
2022/01/07 02:38:17;;;;;;;;;;;2.30;99.90;;;;;;5144973;27;20009;-56
2022/01/07 02:40:43;;;;;;;;;;;2.40;99.90;;;;;;5132648;27;19981;-56
2022/01/07 02:43:09;;;;;;;;;;;3.30;99.90;;;;;;5128898;27;20388;-55
2022/01/07 02:45:34;;;;;;;;;;;2.30;99.90;;;;;;5142717;27;19927;-56
2022/01/07 02:48:03;;;;;;;;;;;2.40;99.90;;;;;;5131808;27;19934;-56
2022/01/07 02:50:30;;;;;;;;;;;2.30;99.90;;;;;;5144922;27;19928;-55
2022/01/07 02:52:56;;;;;;;;;;;2.30;99.90;;;;;;5136794;27;19927;-55
2022/01/07 02:55:22;;;;;;;;;;;2.30;99.90;;;;;;5137488;27;20427;-56
2022/01/07 02:57:48;;;;;;;;;;;2.20;99.90;;;;;;5144416;27;19927;-57
2022/01/07 03:00:14;;;;;;;;;;;2.30;99.90;;;;;;5131979;27;19927;-55
2022/01/07 03:02:40;;;;;;;;;;;2.20;99.90;;;;;;5144921;27;19972;-56
2022/01/07 03:05:06;;;;;;;;;;;2.20;99.90;;;;;;5138504;27;19927;-55
2022/01/07 03:07:34;;;;;;;;;;;2.20;99.90;;;;;;5135220;27;19934;-56
2022/01/07 03:10:00;;;;;;;;;;;2.30;99.90;;;;;;5128786;27;19927;-56
2022/01/07 03:12:25;;;;;;;;;;;2.20;99.90;;;;;;5132665;27;19927;-55
2022/01/07 03:14:51;;;;;;;;;;;2.30;99.90;;;;;;5141547;27;19927;-56
2022/01/07 03:17:16;;;;;;;;;;;2.20;99.90;;;;;;5139945;27;19999;-56
2022/01/07 03:19:42;;;;;;;;;;;2.30;99.90;;;;;;5133767;27;19938;-56
2022/01/07 03:22:07;;;;;;;;;;;2.20;99.90;;;;;;5145653;27;20010;-59
2022/01/07 03:24:33;;;;;;;;;;;2.20;99.90;;;;;;5133560;27;19974;-56
2022/01/07 03:26:59;;;;;;;;;;;2.90;99.90;;;;;;5140302;27;19927;-59
2022/01/07 03:29:25;;;;;;;;;;;2.30;99.90;;;;;;5140406;27;19930;-58
2022/01/07 03:31:50;;;;;;;;;;;2.40;99.90;;;;;;5132920;27;19928;-59
2022/01/07 03:34:16;;;;;;;;;;;2.40;99.90;;;;;;5145338;27;19931;-56
2022/01/07 03:36:41;;;;;;;;;;;4.30;99.90;;;;;;5139049;27;19977;-58
2022/01/07 03:39:08;;;;;;;;;;;2.30;99.90;;;;;;5142648;27;19934;-56
2022/01/07 03:41:34;;;;;;;;;;;2.20;99.90;;;;;;5135555;27;19984;-59
2022/01/07 03:43:59;;;;;;;;;;;2.30;99.90;;;;;;5132447;27;20340;-56
2022/01/07 03:46:25;;;;;;;;;;;2.30;99.90;;;;;;5148890;27;19972;-58
2022/01/07 03:48:50;;;;;;;;;;;2.30;99.90;;;;;;5138790;27;20361;-66
2022/01/07 03:51:16;;;;;;;;;;;2.30;99.90;;;;;;5131945;27;20420;-63
2022/01/07 03:53:42;;;;;;;;;;;2.30;99.90;;;;;;5147330;27;20013;-65
2022/01/07 03:56:10;;;;;;;;;;;2.30;99.90;;;;;;5135353;27;19931;-65
2022/01/07 03:58:35;;;;;;;;;;;2.30;99.90;;;;;;5147268;27;19933;-62
2022/01/07 04:01:01;;;;;;;;;;;2.40;99.90;;;;;;5140862;27;20042;-61
2022/01/07 04:03:26;;;;;;;;;;;2.30;99.90;;;;;;5135208;27;19927;-56
2022/01/07 04:05:52;;;;;;;;;;;2.30;99.90;;;;;;5146865;27;19931;-58
2022/01/07 04:08:18;;;;;;;;;;;3.10;99.90;;;;;;5131748;27;20384;-56
2022/01/07 04:10:43;;;;;;;;;;;2.30;99.90;;;;;;5138387;27;19927;-58
2022/01/07 04:13:09;;;;;;;;;;;2.90;99.90;;;;;;5141809;27;19930;-55
2022/01/07 04:15:34;;;;;;;;;;;2.40;99.90;;;;;;5145395;27;19999;-55
2022/01/07 04:18:00;;;;;;;;;;;2.40;99.90;;;;;;5134216;27;20018;-56
2022/01/07 04:20:28;;;;;;;;;;;2.40;99.90;;;;;;5147831;27;20014;-56
2022/01/07 04:22:54;;;;;;;;;;;2.40;99.90;;;;;;5139932;27;19974;-56
2022/01/07 04:25:21;;;;;;;;;;;2.40;99.90;;;;;;5149699;27;19927;-56
2022/01/07 04:27:47;;;;;;;;;;;2.40;99.90;;;;;;5136240;27;19934;-56
2022/01/07 04:30:14;;;;;;;;;;;2.40;99.90;;;;;;5146857;27;20261;-56
2022/01/07 04:32:39;;;;;;;;;;;2.40;99.90;;;;;;5137279;27;20356;-56
2022/01/07 04:35:06;;;;;;;;;;;2.40;99.90;;;;;;5142376;27;20013;-56
2022/01/07 04:37:31;;;;;;;;;;;2.50;99.90;;;;;;5144327;27;20058;-59
2022/01/07 04:39:57;;;;;;;;;;;2.50;99.90;;;;;;5138457;27;20010;-55
2022/01/07 04:42:22;;;;;;;;;;;2.50;99.90;;;;;;5131114;27;19978;-56
2022/01/07 04:44:48;;;;;;;;;;;2.40;99.90;;;;;;5130683;27;19969;-55
2022/01/07 04:47:13;;;;;;;;;;;2.50;99.90;;;;;;5140786;27;19946;-63
2022/01/07 04:49:39;;;;;;;;;;;3.30;99.90;;;;;;5136924;27;19928;-57
2022/01/07 04:52:05;;;;;;;;;;;2.50;99.90;;;;;;5147982;27;19926;-56
2022/01/07 04:54:31;;;;;;;;;;;2.50;99.90;;;;;;5135771;27;19927;-57
2022/01/07 04:56:56;;;;;;;;;;;2.50;99.90;;;;;;5142621;27;19927;-59
2022/01/07 04:59:22;;;;;;;;;;;2.50;99.90;;;;;;5130634;27;19928;-56
2022/01/07 05:01:48;;;;;;;;;;;2.50;99.90;;;;;;5141778;27;19923;-58
2022/01/07 05:04:13;;;;;;;;;;;2.50;99.90;;;;;;5135351;27;19985;-58
2022/01/07 05:06:45;;;;;;;;;;;2.60;99.90;;;;;;5145058;27;20360;-58
2022/01/07 05:09:16;;;;;;;;;;;2.50;99.90;;;;;;5131601;27;19992;-57
2022/01/07 05:11:45;;;;;;;;;;;2.50;99.90;;;;;;5130149;27;20407;-57
2022/01/07 05:14:11;;;;;;;;;;;2.60;99.90;;;;;;5147501;27;19931;-59
2022/01/07 05:16:37;;;;;;;;;;;2.60;99.90;;;;;;5136370;27;19927;-63
2022/01/07 05:19:02;;;;;;;;;;;2.60;99.90;;;;;;5141410;27;19988;-57
2022/01/07 05:21:28;;;;;;;;;;;3.00;99.90;;;;;;5143473;27;20013;-59
2022/01/07 05:23:54;;;;;;;;;;;2.70;99.90;;;;;;5134153;27;20010;-55
2022/01/07 05:26:20;;;;;;;;;;;3.10;99.90;;;;;;5147378;27;19934;-56
2022/01/07 05:28:45;;;;;;;;;;;2.70;99.90;;;;;;5136095;27;20441;-56
2022/01/07 05:31:11;;;;;;;;;;;3.20;99.90;;;;;;5136195;27;19927;-56
2022/01/07 05:33:36;;;;;;;;;;;2.70;99.90;;;;;;5142261;27;20476;-63
2022/01/07 05:36:02;;;;;;;;;;;2.70;99.90;;;;;;5133908;27;19989;-59
2022/01/07 05:38:28;;;;;;;;;;;2.70;99.90;;;;;;5145799;27;19942;-58
2022/01/07 05:40:53;;;;;;;;;;;2.70;99.90;;;;;;5133562;27;20368;-56
2022/01/07 05:43:19;;;;;;;;;;;2.70;99.90;;;;;;5129599;27;19923;-56
2022/01/07 05:45:45;;;;;;;;;;;2.70;99.90;;;;;;5145593;27;20818;-56
2022/01/07 05:48:12;;;;;;;;;;;2.70;99.90;;;;;;5133174;27;19927;-57
2022/01/07 05:50:37;;;;;;;;;;;2.70;99.90;;;;;;5144554;27;19928;-56
2022/01/07 05:53:03;;;;;;;;;;;2.70;99.90;;;;;;5139170;27;19937;-60
2022/01/07 05:55:28;;;;;;;;;;;3.30;99.90;;;;;;5137303;27;19935;-56
2022/01/07 05:57:54;;;;;;;;;;;2.70;99.90;;;;;;5146132;27;20026;-56
2022/01/07 06:00:19;;;;;;;;;;;2.80;99.90;;;;;;5133493;27;19927;-56
2022/01/07 06:02:45;;;;;;;;;;;2.80;99.90;;;;;;5137895;27;20291;-56
2022/01/07 06:05:11;;;;;;;;;;;2.80;99.90;;;;;;5138579;27;19972;-55
2022/01/07 06:07:37;;;;;;;;;;;2.80;99.90;;;;;;5135518;27;19992;-56
2022/01/07 06:10:03;;;;;;;;;;;2.80;99.90;;;;;;5130123;27;19931;-57
2022/01/07 06:12:29;;;;;;;;;;;2.80;99.90;;;;;;5133924;27;19934;-56
2022/01/07 06:14:54;;;;;;;;;;;3.00;99.90;;;;;;5141424;27;19923;-56
2022/01/07 06:17:20;;;;;;;;;;;2.80;99.90;;;;;;5141240;27;19931;-55
2022/01/07 06:19:45;;;;;;;;;;;3.00;99.90;;;;;;5134219;27;20273;-66
2022/01/07 06:22:11;;;;;;;;;;;2.80;99.90;;;;;;5145992;27;19927;-66
2022/01/07 06:24:37;;;;;;;;;;;2.80;99.90;;;;;;5134757;27;19965;-65
2022/01/07 06:27:02;;;;;;;;;;;4.00;99.90;;;;;;5140060;27;20434;-60
2022/01/07 06:29:28;;;;;;;;;;;2.80;99.90;;;;;;5142080;27;19973;-62
2022/01/07 06:31:53;;;;;;;;;;;2.80;99.90;;;;;;5130655;27;19931;-58
2022/01/07 06:34:20;;;;;;;;;;;2.80;99.90;;;;;;5144220;27;19928;-64
2022/01/07 06:36:49;;;;;;;;;;;2.80;99.90;;;;;;5134665;27;20022;-67
2022/01/07 06:39:15;;;;;;;;;;;2.80;99.90;;;;;;5137806;27;20005;-65
2022/01/07 06:41:41;;;;;;;;;;;2.90;99.90;;;;;;5132623;27;19981;-61
2022/01/07 06:44:06;;;;;;;;;;;2.90;99.90;;;;;;5111183;27;19935;-67
2022/01/07 06:46:32;;;;;;;;;;;3.00;99.90;;;;;;5143990;27;19957;-61
2022/01/07 06:48:58;;;;;;;;;;;2.90;99.90;;;;;;5137576;27;20434;-58
2022/01/07 06:51:23;;;;;;;;;;;2.90;99.90;;;;;;5136949;27;19981;-59
2022/01/07 06:53:49;;;;;;;;;;;2.90;99.90;;;;;;5145330;27;19927;-56
2022/01/07 06:56:14;;;;;;;;;;;2.90;99.90;;;;;;5131829;27;20012;-57
2022/01/07 06:58:42;;;;;;;;;;;2.90;99.90;;;;;;5141943;27;19927;-55
2022/01/07 07:01:07;;;;;;;;;;;2.90;99.90;;;;;;5128370;27;19931;-65
2022/01/07 07:03:35;;;;;;;;;;;2.90;99.90;;;;;;5130031;27;19984;-66
2022/01/07 07:06:00;;;;;;;;;;;2.90;99.90;;;;;;5145439;27;20401;-68
2022/01/07 07:08:28;;;;;;;;;;;2.90;99.90;;;;;;5128154;27;19928;-56
2022/01/07 07:10:54;;;;;;;;;;;2.90;99.90;;;;;;5138206;27;19927;-58
2022/01/07 07:13:19;;;;;;;;;;;3.00;99.90;;;;;;5141150;27;19933;-56
2022/01/07 07:15:45;;;;;;;;;;;2.90;99.90;;;;;;5148392;27;19980;-60
2022/01/07 07:18:10;;;;;;;;;;;3.00;99.90;;;;;;5136268;27;20487;-55
2022/01/07 07:20:36;;;;;;;;;;;3.00;99.90;;;;;;5143873;27;19934;-56
2022/01/07 07:23:01;;;;;;;;;;;3.00;99.90;;;;;;5134781;27;19935;-57
2022/01/07 07:25:27;;;;;;;;;;;3.00;99.90;;;;;;5143695;27;20298;-62
2022/01/07 07:27:53;;;;;;;;;;;3.00;99.90;;;;;;5141640;27;19935;-56
2022/01/07 07:30:18;;;;;;;;;;;3.00;99.90;;;;;;5135372;27;19978;-56
2022/01/07 07:32:44;;;;;;;;;;;3.90;99.90;;;;;;5140128;27;19972;-56
2022/01/07 07:37:41;;;;;;;;;;;3.10;99.90;;;;;;5132244;27;20337;-65
2022/01/07 07:40:07;;;;;;;;;;;3.10;99.90;;;;;;5136485;27;20571;-61
2022/01/07 07:42:33;;;;;;;;;;;3.10;99.90;;;;;;5146603;27;19991;-56
2022/01/07 07:44:58;;;;;;;;;;;3.10;99.90;;;;;;5140899;27;20352;-58
2022/01/07 07:47:24;;;;;;;;;;;3.10;99.90;;;;;;5140191;27;19928;-57
2022/01/07 07:49:49;;;;;;;;;;;3.10;99.90;;;;;;5147936;27;20351;-56
2022/01/07 07:52:15;;;;;;;;;;;3.10;99.90;;;;;;5131597;27;19927;-59
2022/01/07 07:54:41;;;;;;;;;;;3.70;99.90;;;;;;5140839;27;19927;-57
2022/01/07 07:57:06;;;;;;;;;;;3.70;99.90;;;;;;5135695;27;20167;-57
2022/01/07 07:59:32;;;;;;;;;;;3.20;99.90;;;;;;5131631;27;20404;-57
2022/01/07 08:01:58;;;;;;;;;;;3.20;99.90;;;;;;5129703;27;19928;-55
2022/01/07 08:04:23;;;;;;;;;;;3.20;99.90;;;;;;5132520;27;19970;-59
2022/01/07 08:06:49;;;;;;;;;;;4.00;99.90;;;;;;5127966;27;19934;-56
2022/01/07 08:09:15;;;;;;;;;;;3.30;99.90;;;;;;5128851;27;19927;-57
2022/01/07 08:11:52;;;;;;;;;;;3.30;99.90;;;;;;5133409;27;19927;-56
2022/01/07 08:17:04;;;;;;;;;;;4.00;99.90;;;;;;5134044;27;19931;-56
2022/01/07 08:19:29;;;;;;;;;;;3.30;99.90;;;;;;5134719;27;19979;-56
2022/01/07 08:21:55;;;;;;;;;;;3.30;99.90;;;;;;5131575;27;19931;-56
2022/01/07 08:24:20;;;;;;;;;;;3.40;99.90;;;;;;5137083;27;20391;-57
2022/01/07 08:26:46;;;;;;;;;;;3.40;99.90;;;;;;5130794;27;19923;-56
2022/01/07 08:29:13;;;;;;;;;;;3.40;99.90;;;;;;5132061;27;19927;-58
2022/01/07 08:36:49;;;;;;;;;;;3.50;99.90;;;;;;5134787;27;19936;-56
2022/01/07 08:39:14;;;;;;;;;;;3.50;99.90;;;;;;5140728;27;19934;-57
2022/01/07 08:41:40;;;;;;;;;;;3.60;99.90;;;;;;5141265;27;19928;-59
2022/01/07 08:44:06;;;;;;;;;;;3.60;99.90;;;;;;5140870;27;20171;-63
2022/01/07 08:46:32;;;;;;;;;;;3.70;99.90;;;;;;5130950;27;20888;-59
2022/01/07 08:48:57;;;;;;;;;;;3.70;99.90;;;;;;5136369;27;19931;-57
2022/01/07 08:51:23;;;;;;;;;;;3.80;99.90;;;;;;5145436;27;20295;-61
2022/01/07 08:53:49;;;;;;;;;;;3.80;99.90;;;;;;5143357;27;19927;-56
2022/01/07 08:56:16;;;;;;;;;;;3.80;99.90;;;;;;5133170;27;19923;-59
2022/01/07 08:58:42;;;;;;;;;;;3.90;99.90;;;;;;5139346;27;20369;-62
2022/01/07 09:01:08;;;;;;;;;;;5.20;99.90;;;;;;5133268;27;19966;-63
2022/01/07 09:03:34;;;;;;;;;;;5.80;99.90;;;;;;5128956;27;20018;-59
2022/01/07 09:05:59;;;;;;;;;;;4.90;99.90;;;;;;5128387;27;19928;-59
2022/01/07 09:08:25;;;;;;;;;;;4.20;99.90;;;;;;5130294;27;19976;-56
2022/01/07 09:10:51;;;;;;;;;;;2.30;99.90;;;;;;5127586;27;20040;-57
2022/01/07 09:13:18;;;;;;;;;;;4.40;99.90;;;;;;5128523;27;20029;-57
2022/01/07 09:15:44;;;;;;;;;;;4.40;99.90;;;;;;5119374;27;19934;-57
2022/01/07 09:18:10;;;;;;;;;;;4.80;99.90;;;;;;5131742;27;19927;-57
2022/01/07 09:20:40;;;;;;;;;;;4.50;99.90;;;;;;5125458;27;19931;-60
2022/01/07 09:23:06;;;;;;;;;;;4.50;99.90;;;;;;5125907;27;19927;-58
2022/01/07 09:25:32;;;;;;;;;;;4.60;99.90;;;;;;5125726;27;20359;-57
2022/01/07 09:27:57;;;;;;;;;;;4.60;99.90;;;;;;5137614;27;19934;-65
2022/01/07 09:30:23;;;;;;;;;;;4.60;99.90;;;;;;5134585;27;19957;-56
2022/01/07 09:32:49;;;;;;;;;;;4.60;99.90;;;;;;5131541;27;19927;-61
2022/01/07 09:35:16;;;;;;;;;;;4.60;99.90;;;;;;5134665;27;20447;-56
2022/01/07 09:37:42;;;;;;;;;;;4.60;99.90;;;;;;5131475;27;20001;-57
2022/01/07 09:40:08;;;;;;;;;;;4.50;99.90;;;;;;5143075;27;20289;-61
2022/01/07 09:42:33;;;;;;;;;;;4.60;99.90;;;;;;5131571;27;20389;-66
2022/01/07 09:44:59;;;;;;;;;;;4.60;99.90;;;;;;5143853;27;20274;-58
2022/01/07 09:47:26;;;;;;;;;;;4.60;99.90;;;;;;5130116;27;19931;-68
2022/01/07 09:49:51;;;;;;;;;;;4.70;99.90;;;;;;5140582;27;19927;-69
2022/01/07 09:52:17;;;;;;;;;;;4.70;99.90;;;;;;5110111;27;20433;-62
2022/01/07 09:54:42;;;;;;;;;;;4.70;99.90;;;;;;5141916;27;19931;-60
2022/01/07 09:57:08;;;;;;;;;;;4.80;99.90;;;;;;5118237;27;20034;-64
2022/01/07 09:59:34;;;;;;;;;;;4.90;99.90;;;;;;5130105;27;19927;-62
2022/01/07 10:02:09;;;;;;;;;;;5.10;99.90;;;;;;5131194;27;19935;-68
2022/01/07 10:04:39;;;;;;;;;;;5.20;99.90;;;;;;5138649;27;19927;-66
2022/01/07 10:07:08;;;;;;;;;;;5.30;99.90;;;;;;5129223;27;20057;-62
2022/01/07 10:09:34;;;;;;;;;;;5.40;99.90;;;;;;5132575;27;19973;-63
2022/01/07 10:12:03;;;;;;;;;;;5.40;99.90;;;;;;5127541;27;20021;-67
2022/01/07 10:14:30;;;;;;;;;;;5.30;99.90;;;;;;5127768;27;19931;-68
2022/01/07 10:16:57;;;;;;;;;;;5.20;99.90;;;;;;5123856;27;20391;-67
2022/01/07 10:19:30;;;;;;;;;;;5.10;99.90;;;;;;5131397;27;20408;-66
2022/01/07 10:21:57;;;;;;;;;;;4.90;99.90;;;;;;5131670;27;20200;-64
2022/01/07 10:24:22;;;;;;;;;;;4.90;99.90;;;;;;5127275;27;19927;-57
2022/01/07 10:27:07;;;;;;;;;;;5.00;99.90;;;;;;5130014;27;20292;-57
2022/01/07 10:29:37;;;;;;;;;;;4.80;99.90;;;;;;5132216;27;19932;-57
2022/01/07 10:32:38;;;;;;;;;;;4.80;99.90;;;;;;5126659;27;20377;-56
2022/01/07 10:35:09;;;;;;;;;;;4.80;99.90;;;;;;5051708;28;20326;-56
2022/01/07 10:37:36;;;;;;;;;;;4.90;99.90;;;;;;5118312;27;19970;-55
2022/01/07 10:40:18;;;;;;;;;;;5.20;99.90;;;;;;5129727;27;20022;-56
2022/01/07 10:42:44;;;;;;;;;;;5.10;99.90;;;;;;5132417;27;19938;-60
2022/01/07 10:45:09;;;;;;;;;;;5.20;99.90;;;;;;5126024;27;19927;-56
2022/01/07 10:47:35;;;;;;;;;;;5.30;99.90;;;;;;5125972;27;20055;-56
2022/01/07 10:50:13;;;;;;;;;;;5.50;99.90;;;;;;5127398;27;19927;-55
2022/01/07 10:52:39;;;;;;;;;;;5.50;99.90;;;;;;5127125;27;19939;-57
2022/01/07 10:55:08;;;;;;;;;;;5.70;99.90;;;;;;5131442;27;19996;-56
2022/01/07 10:57:38;;;;;;;;;;;5.90;99.90;;;;;;5130226;27;20005;-57
2022/01/07 11:00:07;;;;;;;;;;;6.00;99.90;;;;;;5133000;27;20368;-58
2022/01/07 11:02:34;;;;;;;;;;;6.10;99.90;;;;;;5137012;27;19935;-56
2022/01/07 11:04:59;;;;;;;;;;;6.20;99.90;;;;;;5142434;27;19927;-56
2022/01/07 11:07:25;;;;;;;;;;;6.40;99.90;;;;;;5138874;27;19932;-57
2022/01/07 11:09:51;;;;;;;;;;;6.60;99.90;;;;;;5143591;27;19926;-57
2022/01/07 11:12:17;;;;;;;;;;;6.70;99.90;;;;;;5132309;27;19927;-59
2022/01/07 11:14:42;;;;;;;;;;;6.40;99.90;;;;;;5129699;27;20321;-58
2022/01/07 11:17:11;;;;;;;;;;;6.30;99.90;;;;;;5129974;27;19974;-57
2022/01/07 11:19:42;;;;;;;;;;;6.40;99.90;;;;;;5138986;27;19935;-60
2022/01/07 11:22:13;;;;;;;;;;;6.30;99.90;;;;;;5139020;27;19949;-60
2022/01/07 11:24:42;;;;;;;;;;;6.40;99.90;;;;;;5129780;27;19957;-56
2022/01/07 11:27:12;;;;;;;;;;;6.30;99.90;;;;;;5125763;27;20316;-56
2022/01/07 11:29:39;;;;;;;;;;;6.10;99.90;;;;;;5130404;27;19977;-60
2022/01/07 11:32:24;;;;;;;;;;;6.10;99.90;;;;;;5136673;27;19995;-60
2022/01/07 11:34:50;;;;;;;;;;;6.00;99.90;;;;;;5135781;27;20292;-59
2022/01/07 11:37:36;;;;;;;;;;;5.90;99.90;;;;;;5132563;27;19928;-61
2022/01/07 11:40:02;;;;;;;;;;;5.80;99.90;;;;;;5137981;27;20436;-58
2022/01/07 11:42:43;;;;;;;;;;;5.90;99.90;;;;;;5112937;27;20432;-56
2022/01/07 11:45:28;;;;;;;;;;;5.90;99.90;;;;;;5130932;27;19927;-55
2022/01/07 11:47:55;;;;;;;;;;;6.00;99.90;;;;;;5130776;27;19961;-61
2022/01/07 11:50:22;;;;;;;;;;;6.00;99.90;;;;;;5127979;27;19927;-59
2022/01/07 11:52:55;;;;;;;;;;;6.00;99.90;;;;;;5126456;27;19927;-56
2022/01/07 11:55:22;;;;;;;;;;;6.00;99.90;;;;;;5132268;27;19927;-61
2022/01/07 11:57:52;;;;;;;;;;;6.00;99.90;;;;;;5133406;27;20485;-56
2022/01/07 12:00:37;;;;;;;;;;;6.00;99.90;;;;;;5140106;27;19930;-56
2022/01/07 12:03:03;;;;;;;;;;;5.90;99.90;;;;;;5120197;27;19957;-61
2022/01/07 12:05:32;;;;;;;;;;;5.80;99.90;;;;;;5144232;27;19931;-56
2022/01/07 12:07:57;;;;;;;;;;;5.70;99.90;;;;;;5133118;27;19974;-60
2022/01/07 12:10:23;;;;;;;;;;;4.80;99.90;;;;;;5147923;27;20039;-60
2022/01/07 12:12:50;;;;;;;;;;;5.70;99.90;;;;;;5137866;27;19928;-57
2022/01/07 12:15:16;;;;;;;;;;;5.80;99.90;;;;;;5146983;27;20448;-57
2022/01/07 12:17:41;;;;;;;;;;;5.80;99.90;;;;;;5136421;27;19996;-56
2022/01/07 12:20:39;;;;;;;;;;;5.70;99.90;;;;;;5144176;27;19978;-59
2022/01/07 12:23:05;;;;;;;;;;;5.70;99.90;;;;;;5144122;27;19927;-58
2022/01/07 12:25:30;;;;;;;;;;;5.60;99.90;;;;;;5137392;27;20393;-58
2022/01/07 12:28:00;;;;;;;;;;;5.60;99.90;;;;;;5129611;27;19935;-63
2022/01/07 12:30:26;;;;;;;;;;;5.60;99.90;;;;;;5147077;27;19935;-65
2022/01/07 12:32:52;;;;;;;;;;;5.60;99.90;;;;;;5139271;27;19934;-57
2022/01/07 12:35:18;;;;;;;;;;;5.60;99.90;;;;;;5130558;27;19927;-64
2022/01/07 12:37:43;;;;;;;;;;;5.60;99.90;;;;;;5140389;27;19935;-64
2022/01/07 12:40:10;;;;;;;;;;;5.60;99.90;;;;;;5137807;27;19934;-59
2022/01/07 12:42:38;;;;;;;;;;;5.50;99.90;;;;;;5133506;27;20277;-61
2022/01/07 12:45:04;;;;;;;;;;;5.60;99.90;;;;;;5134162;27;19932;-66
2022/01/07 12:47:30;;;;;;;;;;;5.60;99.90;;;;;;5131419;27;20334;-65
2022/01/07 12:49:57;;;;;;;;;;;5.50;99.90;;;;;;5132445;27;20023;-56
2022/01/07 12:52:33;;;;;;;;;;;5.40;99.90;;;;;;5136948;27;19931;-65
2022/01/07 12:54:59;;;;;;;;;;;5.90;99.90;;;;;;5137166;27;20393;-65
2022/01/07 12:57:46;;;;;;;;;;;5.30;99.90;;;;;;5133587;27;19931;-62
2022/01/07 13:00:19;;;;;;;;;;;5.30;99.90;;;;;;5133123;27;20041;-57
2022/01/07 13:02:46;;;;;;;;;;;5.30;99.90;;;;;;5132442;27;19979;-62
2022/01/07 13:05:16;;;;;;;;;;;5.30;99.90;;;;;;5140312;27;20097;-68
2022/01/07 13:07:43;;;;;;;;;;;5.40;99.90;;;;;;5139632;27;20455;-57
2022/01/07 13:10:09;;;;;;;;;;;6.00;99.90;;;;;;5133193;27;19980;-58
2022/01/07 13:12:35;;;;;;;;;;;5.60;99.90;;;;;;5134183;27;20399;-57
2022/01/07 13:15:01;;;;;;;;;;;5.50;99.90;;;;;;5139149;27;19922;-60
2022/01/07 13:17:28;;;;;;;;;;;5.60;99.90;;;;;;5131883;27;20010;-57
2022/01/07 13:19:54;;;;;;;;;;;5.60;99.90;;;;;;5146441;27;20367;-57
2022/01/07 13:22:23;;;;;;;;;;;5.60;99.90;;;;;;5131782;27;20026;-60
2022/01/07 13:24:49;;;;;;;;;;;5.60;99.90;;;;;;5131441;27;19931;-59
2022/01/07 13:27:14;;;;;;;;;;;5.60;99.90;;;;;;5132594;27;19949;-59
2022/01/07 13:29:45;;;;;;;;;;;5.60;99.90;;;;;;5144485;27;20226;-57
2022/01/07 13:32:18;;;;;;;;;;;5.50;99.90;;;;;;5140429;27;20211;-60
2022/01/07 13:34:44;;;;;;;;;;;5.40;99.90;;;;;;5129777;27;19928;-60
2022/01/07 13:37:14;;;;;;;;;;;5.40;99.90;;;;;;5133978;27;19927;-58
2022/01/07 13:39:47;;;;;;;;;;;5.40;99.90;;;;;;5139806;27;20022;-58
2022/01/07 13:42:18;;;;;;;;;;;5.20;99.90;;;;;;5140019;27;19943;-58
2022/01/07 13:44:48;;;;;;;;;;;5.20;99.90;;;;;;5134162;27;19988;-57
2022/01/07 13:47:24;;;;;;;;;;;5.10;99.90;;;;;;5134551;27;20463;-58
2022/01/07 13:49:50;;;;;;;;;;;5.10;99.90;;;;;;5144032;27;19927;-57
2022/01/07 13:52:26;;;;;;;;;;;5.10;99.90;;;;;;5132905;27;19975;-58
2022/01/07 13:54:52;;;;;;;;;;;5.10;99.90;;;;;;5142505;27;19954;-60
2022/01/07 13:57:17;;;;;;;;;;;5.10;99.90;;;;;;5140598;27;19926;-60
2022/01/07 13:59:53;;;;;;;;;;;5.00;99.90;;;;;;5135460;27;19931;-58
2022/01/07 14:02:20;;;;;;;;;;;5.00;99.90;;;;;;5133289;27;19927;-57
2022/01/07 14:04:48;;;;;;;;;;;5.00;99.90;;;;;;5131190;27;19935;-60
2022/01/07 14:07:20;;;;;;;;;;;4.90;99.90;;;;;;5139555;27;19931;-58
2022/01/07 14:10:04;;;;;;;;;;;4.80;99.90;;;;;;5130942;27;20377;-57
2022/01/07 14:12:30;;;;;;;;;;;4.80;99.90;;;;;;5131521;27;19981;-58
2022/01/07 14:15:22;;;;;;;;;;;4.70;99.90;;;;;;5135398;27;19934;-59
2022/01/07 14:17:48;;;;;;;;;;;4.70;99.90;;;;;;5128167;27;19927;-60
2022/01/07 14:20:14;;;;;;;;;;;4.60;99.90;;;;;;5131277;27;20462;-56
2022/01/07 14:22:42;;;;;;;;;;;4.60;99.90;;;;;;5143899;27;19956;-57
2022/01/07 14:25:09;;;;;;;;;;;4.60;99.90;;;;;;5137672;27;20376;-56
2022/01/07 14:27:35;;;;;;;;;;;4.60;99.90;;;;;;5133361;27;19984;-58
2022/01/07 14:30:02;;;;;;;;;;;4.50;99.90;;;;;;5132119;27;19980;-56
2022/01/07 14:32:28;;;;;;;;;;;4.50;99.90;;;;;;5137852;27;19979;-56
2022/01/07 14:34:58;;;;;;;;;;;4.40;99.90;;;;;;5135422;27;19935;-56
2022/01/07 14:37:25;;;;;;;;;;;4.50;99.90;;;;;;5130990;27;19950;-56
2022/01/07 14:39:51;;;;;;;;;;;4.50;99.90;;;;;;5140562;27;19984;-56